sensor_id;sensor_type;location;lat;lon;timestamp;temperature;humidity
52899;DHT22;38763;53.096;6.062;2023-08-31T00:02:06;12.00;99.90
52899;DHT22;38763;53.096;6.062;2023-08-31T00:04:32;12.00;99.90
52899;DHT22;38763;53.096;6.062;2023-08-31T00:06:58;12.00;99.90
52899;DHT22;38763;53.096;6.062;2023-08-31T00:09:24;12.00;99.90
52899;DHT22;38763;53.096;6.062;2023-08-31T00:11:50;12.00;99.90
52899;DHT22;38763;53.096;6.062;2023-08-31T00:14:17;11.90;99.90
52899;DHT22;38763;53.096;6.062;2023-08-31T00:16:43;11.90;99.90
52899;DHT22;38763;53.096;6.062;2023-08-31T00:19:11;11.90;99.90
52899;DHT22;38763;53.096;6.062;2023-08-31T00:21:37;11.70;99.90
52899;DHT22;38763;53.096;6.062;2023-08-31T00:24:03;11.80;99.90
52899;DHT22;38763;53.096;6.062;2023-08-31T00:26:29;11.70;99.90
52899;DHT22;38763;53.096;6.062;2023-08-31T00:28:57;11.70;99.90
52899;DHT22;38763;53.096;6.062;2023-08-31T00:31:23;11.70;99.90
52899;DHT22;38763;53.096;6.062;2023-08-31T00:33:49;11.70;99.90
52899;DHT22;38763;53.096;6.062;2023-08-31T00:36:15;11.70;99.90
52899;DHT22;38763;53.096;6.062;2023-08-31T00:38:41;11.60;99.90
52899;DHT22;38763;53.096;6.062;2023-08-31T00:41:07;11.70;99.90
52899;DHT22;38763;53.096;6.062;2023-08-31T00:43:33;11.60;99.90
52899;DHT22;38763;53.096;6.062;2023-08-31T00:45:59;11.60;99.90
52899;DHT22;38763;53.096;6.062;2023-08-31T00:48:25;11.60;99.90
52899;DHT22;38763;53.096;6.062;2023-08-31T00:50:51;11.60;99.90
52899;DHT22;38763;53.096;6.062;2023-08-31T00:53:17;11.60;99.90
52899;DHT22;38763;53.096;6.062;2023-08-31T00:55:46;11.60;99.90
52899;DHT22;38763;53.096;6.062;2023-08-31T00:58:13;11.60;99.90
52899;DHT22;38763;53.096;6.062;2023-08-31T01:03:54;11.60;99.90
52899;DHT22;38763;53.096;6.062;2023-08-31T01:12:46;11.50;99.90
52899;DHT22;38763;53.096;6.062;2023-08-31T01:15:17;11.50;99.90
52899;DHT22;38763;53.096;6.062;2023-08-31T01:17:51;11.50;99.90
52899;DHT22;38763;53.096;6.062;2023-08-31T01:20:32;11.50;99.90
52899;DHT22;38763;53.096;6.062;2023-08-31T01:23:04;11.40;99.90
52899;DHT22;38763;53.096;6.062;2023-08-31T01:25:32;11.40;99.90
52899;DHT22;38763;53.096;6.062;2023-08-31T01:28:01;11.40;99.90
52899;DHT22;38763;53.096;6.062;2023-08-31T01:30:30;11.40;99.90
52899;DHT22;38763;53.096;6.062;2023-08-31T01:32:56;11.40;99.90
52899;DHT22;38763;53.096;6.062;2023-08-31T01:35:22;11.40;99.90
52899;DHT22;38763;53.096;6.062;2023-08-31T01:38:01;11.40;99.90
52899;DHT22;38763;53.096;6.062;2023-08-31T01:40:40;11.40;99.90
52899;DHT22;38763;53.096;6.062;2023-08-31T01:43:10;11.50;99.90
52899;DHT22;38763;53.096;6.062;2023-08-31T01:45:37;11.50;99.90
52899;DHT22;38763;53.096;6.062;2023-08-31T01:48:04;11.60;99.90
52899;DHT22;38763;53.096;6.062;2023-08-31T01:50:30;11.60;99.90
52899;DHT22;38763;53.096;6.062;2023-08-31T01:52:55;11.60;99.90
52899;DHT22;38763;53.096;6.062;2023-08-31T01:55:22;11.70;99.90
52899;DHT22;38763;53.096;6.062;2023-08-31T01:57:48;11.60;99.90
52899;DHT22;38763;53.096;6.062;2023-08-31T02:00:14;11.60;99.90
52899;DHT22;38763;53.096;6.062;2023-08-31T02:02:41;11.50;99.90
52899;DHT22;38763;53.096;6.062;2023-08-31T02:05:08;11.50;99.90
52899;DHT22;38763;53.096;6.062;2023-08-31T02:07:33;11.50;99.90
52899;DHT22;38763;53.096;6.062;2023-08-31T02:09:59;11.50;99.90
52899;DHT22;38763;53.096;6.062;2023-08-31T02:12:25;11.50;99.90
52899;DHT22;38763;53.096;6.062;2023-08-31T02:14:51;11.50;99.90
52899;DHT22;38763;53.096;6.062;2023-08-31T02:17:16;11.40;99.90
52899;DHT22;38763;53.096;6.062;2023-08-31T02:19:42;11.40;99.90
52899;DHT22;38763;53.096;6.062;2023-08-31T02:22:08;11.40;99.90
52899;DHT22;38763;53.096;6.062;2023-08-31T02:24:34;11.30;99.90
52899;DHT22;38763;53.096;6.062;2023-08-31T02:26:59;11.30;99.90
52899;DHT22;38763;53.096;6.062;2023-08-31T02:29:25;11.30;99.90
52899;DHT22;38763;53.096;6.062;2023-08-31T02:31:50;11.20;99.90
52899;DHT22;38763;53.096;6.062;2023-08-31T02:34:16;11.20;99.90
52899;DHT22;38763;53.096;6.062;2023-08-31T02:36:42;11.20;99.90
52899;DHT22;38763;53.096;6.062;2023-08-31T02:39:07;11.20;99.90
52899;DHT22;38763;53.096;6.062;2023-08-31T02:41:33;11.20;99.90
52899;DHT22;38763;53.096;6.062;2023-08-31T02:43:58;11.10;99.90
52899;DHT22;38763;53.096;6.062;2023-08-31T02:46:24;11.10;99.90
52899;DHT22;38763;53.096;6.062;2023-08-31T02:48:50;11.00;99.90
52899;DHT22;38763;53.096;6.062;2023-08-31T02:51:16;11.10;99.90
52899;DHT22;38763;53.096;6.062;2023-08-31T02:53:41;11.00;99.90
52899;DHT22;38763;53.096;6.062;2023-08-31T02:56:07;10.90;99.90
52899;DHT22;38763;53.096;6.062;2023-08-31T02:58:33;10.90;99.90
52899;DHT22;38763;53.096;6.062;2023-08-31T03:01:13;10.90;99.90
52899;DHT22;38763;53.096;6.062;2023-08-31T03:03:41;11.00;99.90
52899;DHT22;38763;53.096;6.062;2023-08-31T03:06:09;10.90;99.90
52899;DHT22;38763;53.096;6.062;2023-08-31T03:08:36;10.90;99.90
52899;DHT22;38763;53.096;6.062;2023-08-31T03:11:02;11.00;99.90
52899;DHT22;38763;53.096;6.062;2023-08-31T03:13:28;11.00;99.90
52899;DHT22;38763;53.096;6.062;2023-08-31T03:15:54;11.00;99.90
52899;DHT22;38763;53.096;6.062;2023-08-31T03:18:21;11.10;99.90
52899;DHT22;38763;53.096;6.062;2023-08-31T03:20:47;11.20;99.90
52899;DHT22;38763;53.096;6.062;2023-08-31T03:23:13;11.20;99.90
52899;DHT22;38763;53.096;6.062;2023-08-31T03:25:38;11.20;99.90
52899;DHT22;38763;53.096;6.062;2023-08-31T03:28:04;11.20;99.90
52899;DHT22;38763;53.096;6.062;2023-08-31T03:30:30;11.30;99.90
52899;DHT22;38763;53.096;6.062;2023-08-31T03:32:55;11.30;99.90
52899;DHT22;38763;53.096;6.062;2023-08-31T03:35:21;11.30;99.90
52899;DHT22;38763;53.096;6.062;2023-08-31T03:37:52;11.30;99.90
52899;DHT22;38763;53.096;6.062;2023-08-31T03:40:18;11.30;99.90
52899;DHT22;38763;53.096;6.062;2023-08-31T03:42:43;11.20;99.90
52899;DHT22;38763;53.096;6.062;2023-08-31T03:45:09;11.20;99.90
52899;DHT22;38763;53.096;6.062;2023-08-31T03:47:35;11.20;99.90
52899;DHT22;38763;53.096;6.062;2023-08-31T03:50:00;11.10;99.90
52899;DHT22;38763;53.096;6.062;2023-08-31T03:52:26;11.00;99.90
52899;DHT22;38763;53.096;6.062;2023-08-31T03:54:52;11.00;99.90
52899;DHT22;38763;53.096;6.062;2023-08-31T03:57:20;11.00;99.90
52899;DHT22;38763;53.096;6.062;2023-08-31T03:59:46;11.00;99.90
52899;DHT22;38763;53.096;6.062;2023-08-31T04:02:12;10.90;99.90
52899;DHT22;38763;53.096;6.062;2023-08-31T04:04:37;10.90;99.90
52899;DHT22;38763;53.096;6.062;2023-08-31T04:07:03;10.90;99.90
52899;DHT22;38763;53.096;6.062;2023-08-31T04:09:29;11.00;99.90
52899;DHT22;38763;53.096;6.062;2023-08-31T04:11:55;10.80;99.90
52899;DHT22;38763;53.096;6.062;2023-08-31T04:14:21;10.80;99.90
52899;DHT22;38763;53.096;6.062;2023-08-31T04:16:47;10.80;99.90
52899;DHT22;38763;53.096;6.062;2023-08-31T04:19:16;10.80;99.90
52899;DHT22;38763;53.096;6.062;2023-08-31T04:21:42;10.80;99.90
52899;DHT22;38763;53.096;6.062;2023-08-31T04:24:08;10.80;99.90
52899;DHT22;38763;53.096;6.062;2023-08-31T04:26:34;10.80;99.90
52899;DHT22;38763;53.096;6.062;2023-08-31T04:28:59;10.70;99.90
52899;DHT22;38763;53.096;6.062;2023-08-31T04:31:25;10.80;99.90
52899;DHT22;38763;53.096;6.062;2023-08-31T04:33:51;10.70;99.90
52899;DHT22;38763;53.096;6.062;2023-08-31T04:36:20;10.70;99.90
52899;DHT22;38763;53.096;6.062;2023-08-31T04:38:48;10.70;99.90
52899;DHT22;38763;53.096;6.062;2023-08-31T04:41:14;10.70;99.90
52899;DHT22;38763;53.096;6.062;2023-08-31T04:43:40;10.80;99.90
52899;DHT22;38763;53.096;6.062;2023-08-31T04:46:06;10.80;99.90
52899;DHT22;38763;53.096;6.062;2023-08-31T04:48:32;10.80;99.90
52899;DHT22;38763;53.096;6.062;2023-08-31T04:50:58;10.80;99.90
52899;DHT22;38763;53.096;6.062;2023-08-31T04:53:24;10.80;99.90
52899;DHT22;38763;53.096;6.062;2023-08-31T04:55:50;10.80;99.90
52899;DHT22;38763;53.096;6.062;2023-08-31T04:58:16;10.80;99.90
52899;DHT22;38763;53.096;6.062;2023-08-31T05:00:41;10.80;99.90
52899;DHT22;38763;53.096;6.062;2023-08-31T05:03:09;10.80;99.90
52899;DHT22;38763;53.096;6.062;2023-08-31T05:05:35;10.80;99.90
52899;DHT22;38763;53.096;6.062;2023-08-31T05:08:01;10.80;99.90
52899;DHT22;38763;53.096;6.062;2023-08-31T05:10:26;10.80;99.90
52899;DHT22;38763;53.096;6.062;2023-08-31T05:12:52;10.80;99.90
52899;DHT22;38763;53.096;6.062;2023-08-31T05:15:18;10.70;99.90
52899;DHT22;38763;53.096;6.062;2023-08-31T05:17:43;10.80;99.90
52899;DHT22;38763;53.096;6.062;2023-08-31T05:20:09;10.70;99.90
52899;DHT22;38763;53.096;6.062;2023-08-31T05:22:35;10.70;99.90
52899;DHT22;38763;53.096;6.062;2023-08-31T05:25:02;10.70;99.90
52899;DHT22;38763;53.096;6.062;2023-08-31T05:27:27;10.70;99.90
52899;DHT22;38763;53.096;6.062;2023-08-31T05:29:53;10.80;99.90
52899;DHT22;38763;53.096;6.062;2023-08-31T05:32:19;10.80;99.90
52899;DHT22;38763;53.096;6.062;2023-08-31T05:34:44;10.90;99.90
52899;DHT22;38763;53.096;6.062;2023-08-31T05:37:10;10.90;99.90
52899;DHT22;38763;53.096;6.062;2023-08-31T05:39:36;10.90;99.90
52899;DHT22;38763;53.096;6.062;2023-08-31T05:42:01;11.00;99.90
52899;DHT22;38763;53.096;6.062;2023-08-31T05:44:27;11.00;99.90
52899;DHT22;38763;53.096;6.062;2023-08-31T05:46:53;11.00;99.90
52899;DHT22;38763;53.096;6.062;2023-08-31T05:49:18;11.10;99.90
52899;DHT22;38763;53.096;6.062;2023-08-31T05:51:44;11.10;99.90
52899;DHT22;38763;53.096;6.062;2023-08-31T05:54:10;11.20;99.90
52899;DHT22;38763;53.096;6.062;2023-08-31T05:56:39;11.30;99.90
52899;DHT22;38763;53.096;6.062;2023-08-31T05:59:06;11.40;99.90
52899;DHT22;38763;53.096;6.062;2023-08-31T06:01:33;11.40;99.90
52899;DHT22;38763;53.096;6.062;2023-08-31T06:03:59;11.50;99.90
52899;DHT22;38763;53.096;6.062;2023-08-31T06:06:24;11.50;99.90
52899;DHT22;38763;53.096;6.062;2023-08-31T06:08:50;11.60;99.90
52899;DHT22;38763;53.096;6.062;2023-08-31T06:11:16;11.70;99.90
52899;DHT22;38763;53.096;6.062;2023-08-31T06:13:41;11.70;99.90
52899;DHT22;38763;53.096;6.062;2023-08-31T06:16:07;11.80;99.90
52899;DHT22;38763;53.096;6.062;2023-08-31T06:18:33;11.90;99.90
52899;DHT22;38763;53.096;6.062;2023-08-31T06:20:59;11.90;99.90
52899;DHT22;38763;53.096;6.062;2023-08-31T06:23:24;12.00;99.90
52899;DHT22;38763;53.096;6.062;2023-08-31T06:25:50;12.10;99.90
52899;DHT22;38763;53.096;6.062;2023-08-31T06:28:15;12.20;99.90
52899;DHT22;38763;53.096;6.062;2023-08-31T06:30:42;12.20;99.90
52899;DHT22;38763;53.096;6.062;2023-08-31T06:33:12;12.20;99.90
52899;DHT22;38763;53.096;6.062;2023-08-31T06:35:38;12.40;99.90
52899;DHT22;38763;53.096;6.062;2023-08-31T06:38:04;12.50;99.90
52899;DHT22;38763;53.096;6.062;2023-08-31T06:40:30;12.60;99.90
52899;DHT22;38763;53.096;6.062;2023-08-31T06:42:55;12.60;99.90
52899;DHT22;38763;53.096;6.062;2023-08-31T06:45:21;12.80;99.90
52899;DHT22;38763;53.096;6.062;2023-08-31T06:47:47;12.80;99.90
52899;DHT22;38763;53.096;6.062;2023-08-31T06:50:12;12.90;99.90
52899;DHT22;38763;53.096;6.062;2023-08-31T06:52:38;13.00;99.90
52899;DHT22;38763;53.096;6.062;2023-08-31T06:55:03;13.10;99.90
52899;DHT22;38763;53.096;6.062;2023-08-31T06:57:31;13.10;99.90
52899;DHT22;38763;53.096;6.062;2023-08-31T06:59:57;13.10;99.90
52899;DHT22;38763;53.096;6.062;2023-08-31T07:02:25;13.20;99.90
52899;DHT22;38763;53.096;6.062;2023-08-31T07:04:51;13.30;99.90
52899;DHT22;38763;53.096;6.062;2023-08-31T07:07:18;13.40;99.90
52899;DHT22;38763;53.096;6.062;2023-08-31T07:09:45;13.50;99.90
52899;DHT22;38763;53.096;6.062;2023-08-31T07:12:11;13.50;99.90
52899;DHT22;38763;53.096;6.062;2023-08-31T07:14:38;13.60;99.90
52899;DHT22;38763;53.096;6.062;2023-08-31T07:17:03;13.70;99.90
52899;DHT22;38763;53.096;6.062;2023-08-31T07:19:29;13.80;99.90
52899;DHT22;38763;53.096;6.062;2023-08-31T07:21:55;13.90;99.90
52899;DHT22;38763;53.096;6.062;2023-08-31T07:24:21;13.90;99.90
52899;DHT22;38763;53.096;6.062;2023-08-31T07:26:47;14.10;99.90
52899;DHT22;38763;53.096;6.062;2023-08-31T07:29:13;14.20;99.90
52899;DHT22;38763;53.096;6.062;2023-08-31T07:31:38;14.30;99.90
52899;DHT22;38763;53.096;6.062;2023-08-31T07:34:04;14.30;99.90
52899;DHT22;38763;53.096;6.062;2023-08-31T07:36:30;14.40;99.90
52899;DHT22;38763;53.096;6.062;2023-08-31T07:38:56;14.40;99.90
52899;DHT22;38763;53.096;6.062;2023-08-31T07:41:21;14.40;99.90
52899;DHT22;38763;53.096;6.062;2023-08-31T07:43:47;14.60;99.90
52899;DHT22;38763;53.096;6.062;2023-08-31T07:46:15;14.70;99.90
52899;DHT22;38763;53.096;6.062;2023-08-31T07:48:42;14.70;99.90
52899;DHT22;38763;53.096;6.062;2023-08-31T07:51:07;14.80;99.90
52899;DHT22;38763;53.096;6.062;2023-08-31T07:53:33;14.90;99.90
52899;DHT22;38763;53.096;6.062;2023-08-31T07:55:59;15.00;99.90
52899;DHT22;38763;53.096;6.062;2023-08-31T07:58:25;15.10;99.90
52899;DHT22;38763;53.096;6.062;2023-08-31T08:00:57;15.20;99.90
52899;DHT22;38763;53.096;6.062;2023-08-31T08:03:23;15.30;99.90
52899;DHT22;38763;53.096;6.062;2023-08-31T08:05:49;15.40;99.90
52899;DHT22;38763;53.096;6.062;2023-08-31T08:08:15;16.20;99.90
52899;DHT22;38763;53.096;6.062;2023-08-31T08:10:40;17.40;99.90
52899;DHT22;38763;53.096;6.062;2023-08-31T08:13:06;18.20;99.90
52899;DHT22;38763;53.096;6.062;2023-08-31T08:15:32;18.70;99.90
52899;DHT22;38763;53.096;6.062;2023-08-31T08:17:58;18.40;99.90
52899;DHT22;38763;53.096;6.062;2023-08-31T08:20:24;18.10;99.90
52899;DHT22;38763;53.096;6.062;2023-08-31T08:22:50;17.50;99.90
52899;DHT22;38763;53.096;6.062;2023-08-31T08:25:20;17.30;99.90
52899;DHT22;38763;53.096;6.062;2023-08-31T08:27:46;17.00;99.90
52899;DHT22;38763;53.096;6.062;2023-08-31T08:30:12;16.50;99.90
52899;DHT22;38763;53.096;6.062;2023-08-31T08:32:38;16.00;99.90
52899;DHT22;38763;53.096;6.062;2023-08-31T08:35:04;15.60;99.90
52899;DHT22;38763;53.096;6.062;2023-08-31T08:37:31;15.20;99.90
52899;DHT22;38763;53.096;6.062;2023-08-31T08:39:58;15.00;99.90
52899;DHT22;38763;53.096;6.062;2023-08-31T08:42:25;14.90;99.90
52899;DHT22;38763;53.096;6.062;2023-08-31T08:44:51;14.80;99.90
52899;DHT22;38763;53.096;6.062;2023-08-31T08:47:18;14.90;99.90
52899;DHT22;38763;53.096;6.062;2023-08-31T08:49:43;15.90;99.90
52899;DHT22;38763;53.096;6.062;2023-08-31T08:52:10;16.90;99.90
52899;DHT22;38763;53.096;6.062;2023-08-31T08:54:37;17.70;99.90
52899;DHT22;38763;53.096;6.062;2023-08-31T08:57:03;18.50;99.90
52899;DHT22;38763;53.096;6.062;2023-08-31T08:59:31;19.20;99.90
52899;DHT22;38763;53.096;6.062;2023-08-31T09:01:57;19.70;99.90
52899;DHT22;38763;53.096;6.062;2023-08-31T09:04:23;19.70;99.90
52899;DHT22;38763;53.096;6.062;2023-08-31T09:06:50;20.10;99.90
52899;DHT22;38763;53.096;6.062;2023-08-31T09:09:16;19.50;99.90
52899;DHT22;38763;53.096;6.062;2023-08-31T09:11:43;19.20;99.90
52899;DHT22;38763;53.096;6.062;2023-08-31T09:14:19;19.30;99.90
52899;DHT22;38763;53.096;6.062;2023-08-31T09:16:48;19.20;99.90
52899;DHT22;38763;53.096;6.062;2023-08-31T09:19:24;18.90;99.90
52899;DHT22;38763;53.096;6.062;2023-08-31T09:21:51;18.00;99.90
52899;DHT22;38763;53.096;6.062;2023-08-31T09:24:17;17.80;99.90
52899;DHT22;38763;53.096;6.062;2023-08-31T09:26:55;17.40;99.90
52899;DHT22;38763;53.096;6.062;2023-08-31T09:29:21;17.40;99.90
52899;DHT22;38763;53.096;6.062;2023-08-31T09:31:47;17.30;99.90
52899;DHT22;38763;53.096;6.062;2023-08-31T09:34:16;17.10;99.90
52899;DHT22;38763;53.096;6.062;2023-08-31T09:36:43;16.70;99.90
52899;DHT22;38763;53.096;6.062;2023-08-31T09:39:09;16.50;99.90
52899;DHT22;38763;53.096;6.062;2023-08-31T09:41:55;16.70;99.90
52899;DHT22;38763;53.096;6.062;2023-08-31T09:44:21;17.60;99.90
52899;DHT22;38763;53.096;6.062;2023-08-31T09:46:47;18.40;99.90
52899;DHT22;38763;53.096;6.062;2023-08-31T09:49:14;18.70;99.90
52899;DHT22;38763;53.096;6.062;2023-08-31T09:51:46;19.10;99.90
52899;DHT22;38763;53.096;6.062;2023-08-31T09:54:16;18.80;99.90
52899;DHT22;38763;53.096;6.062;2023-08-31T09:56:43;18.00;99.90
52899;DHT22;38763;53.096;6.062;2023-08-31T09:59:13;18.10;99.90
52899;DHT22;38763;53.096;6.062;2023-08-31T10:01:40;19.00;99.90
52899;DHT22;38763;53.096;6.062;2023-08-31T10:04:06;19.60;99.90
52899;DHT22;38763;53.096;6.062;2023-08-31T10:06:38;19.70;99.90
52899;DHT22;38763;53.096;6.062;2023-08-31T10:09:04;19.90;99.90
52899;DHT22;38763;53.096;6.062;2023-08-31T10:11:31;20.20;99.90
52899;DHT22;38763;53.096;6.062;2023-08-31T10:13:58;20.50;99.90
52899;DHT22;38763;53.096;6.062;2023-08-31T10:16:27;20.00;99.90
52899;DHT22;38763;53.096;6.062;2023-08-31T10:18:55;19.00;99.90
52899;DHT22;38763;53.096;6.062;2023-08-31T10:21:21;18.20;99.90
52899;DHT22;38763;53.096;6.062;2023-08-31T10:23:51;17.70;99.90
52899;DHT22;38763;53.096;6.062;2023-08-31T10:26:32;17.80;99.90
52899;DHT22;38763;53.096;6.062;2023-08-31T10:28:59;18.40;99.90
52899;DHT22;38763;53.096;6.062;2023-08-31T10:31:29;19.30;99.90
52899;DHT22;38763;53.096;6.062;2023-08-31T10:33:56;19.80;99.90
52899;DHT22;38763;53.096;6.062;2023-08-31T10:36:44;20.30;99.90
52899;DHT22;38763;53.096;6.062;2023-08-31T10:39:18;20.40;99.90
52899;DHT22;38763;53.096;6.062;2023-08-31T10:41:56;20.70;99.90
52899;DHT22;38763;53.096;6.062;2023-08-31T10:44:23;20.90;99.90
52899;DHT22;38763;53.096;6.062;2023-08-31T10:46:50;20.80;99.90
52899;DHT22;38763;53.096;6.062;2023-08-31T10:49:18;20.40;99.90
52899;DHT22;38763;53.096;6.062;2023-08-31T10:51:49;19.40;99.90
52899;DHT22;38763;53.096;6.062;2023-08-31T11:02:26;20.60;99.90
52899;DHT22;38763;53.096;6.062;2023-08-31T11:04:55;21.20;99.90
52899;DHT22;38763;53.096;6.062;2023-08-31T11:07:25;21.50;99.90
52899;DHT22;38763;53.096;6.062;2023-08-31T11:09:51;21.40;99.90
52899;DHT22;38763;53.096;6.062;2023-08-31T11:12:17;20.80;99.90
52899;DHT22;38763;53.096;6.062;2023-08-31T11:14:42;20.30;99.90
52899;DHT22;38763;53.096;6.062;2023-08-31T11:17:09;19.90;99.90
52899;DHT22;38763;53.096;6.062;2023-08-31T11:19:36;19.60;99.90
52899;DHT22;38763;53.096;6.062;2023-08-31T11:22:02;19.40;99.90
52899;DHT22;38763;53.096;6.062;2023-08-31T11:24:32;19.40;99.90
52899;DHT22;38763;53.096;6.062;2023-08-31T11:26:58;19.30;99.90
52899;DHT22;38763;53.096;6.062;2023-08-31T11:29:25;19.20;99.90
52899;DHT22;38763;53.096;6.062;2023-08-31T11:31:50;19.00;99.90
52899;DHT22;38763;53.096;6.062;2023-08-31T11:34:18;18.80;99.90
52899;DHT22;38763;53.096;6.062;2023-08-31T11:36:45;18.50;99.90
52899;DHT22;38763;53.096;6.062;2023-08-31T11:39:12;18.40;99.90
52899;DHT22;38763;53.096;6.062;2023-08-31T11:41:38;18.20;99.90
52899;DHT22;38763;53.096;6.062;2023-08-31T11:44:09;18.00;99.90
52899;DHT22;38763;53.096;6.062;2023-08-31T11:46:36;17.90;99.90
52899;DHT22;38763;53.096;6.062;2023-08-31T11:49:02;18.00;99.90
52899;DHT22;38763;53.096;6.062;2023-08-31T11:51:32;18.20;99.90
52899;DHT22;38763;53.096;6.062;2023-08-31T11:54:01;18.20;99.90
52899;DHT22;38763;53.096;6.062;2023-08-31T11:59:14;17.90;99.90
52899;DHT22;38763;53.096;6.062;2023-08-31T12:01:47;17.70;99.90
52899;DHT22;38763;53.096;6.062;2023-08-31T12:04:20;17.60;99.90
52899;DHT22;38763;53.096;6.062;2023-08-31T12:06:46;17.40;99.90
52899;DHT22;38763;53.096;6.062;2023-08-31T12:09:15;17.30;99.90
52899;DHT22;38763;53.096;6.062;2023-08-31T12:11:41;17.20;99.90
52899;DHT22;38763;53.096;6.062;2023-08-31T12:14:27;17.10;99.90
52899;DHT22;38763;53.096;6.062;2023-08-31T12:17:01;16.90;99.90
52899;DHT22;38763;53.096;6.062;2023-08-31T12:19:28;16.80;99.90
52899;DHT22;38763;53.096;6.062;2023-08-31T12:21:57;16.80;99.90
52899;DHT22;38763;53.096;6.062;2023-08-31T12:24:23;16.90;99.90
52899;DHT22;38763;53.096;6.062;2023-08-31T12:26:51;17.00;99.90
52899;DHT22;38763;53.096;6.062;2023-08-31T12:29:19;17.00;99.90
52899;DHT22;38763;53.096;6.062;2023-08-31T12:31:45;16.70;99.90
52899;DHT22;38763;53.096;6.062;2023-08-31T12:34:11;16.10;99.90
52899;DHT22;38763;53.096;6.062;2023-08-31T12:36:37;15.80;99.90
52899;DHT22;38763;53.096;6.062;2023-08-31T12:39:04;15.60;99.90
52899;DHT22;38763;53.096;6.062;2023-08-31T12:41:32;15.50;99.90
52899;DHT22;38763;53.096;6.062;2023-08-31T12:43:58;15.30;99.90
52899;DHT22;38763;53.096;6.062;2023-08-31T12:46:24;15.30;99.90
52899;DHT22;38763;53.096;6.062;2023-08-31T12:48:50;15.40;99.90
52899;DHT22;38763;53.096;6.062;2023-08-31T12:51:18;15.50;99.90
52899;DHT22;38763;53.096;6.062;2023-08-31T12:53:44;15.60;99.90
52899;DHT22;38763;53.096;6.062;2023-08-31T12:56:09;15.80;99.90
52899;DHT22;38763;53.096;6.062;2023-08-31T12:58:37;16.10;99.90
52899;DHT22;38763;53.096;6.062;2023-08-31T13:01:03;16.40;99.90
52899;DHT22;38763;53.096;6.062;2023-08-31T13:03:28;16.50;99.90
52899;DHT22;38763;53.096;6.062;2023-08-31T13:05:54;16.60;99.90
52899;DHT22;38763;53.096;6.062;2023-08-31T13:08:20;16.90;99.90
52899;DHT22;38763;53.096;6.062;2023-08-31T13:10:55;17.00;99.90
52899;DHT22;38763;53.096;6.062;2023-08-31T13:13:21;16.90;99.90
52899;DHT22;38763;53.096;6.062;2023-08-31T13:15:47;17.10;99.90
52899;DHT22;38763;53.096;6.062;2023-08-31T13:18:13;17.10;99.90
52899;DHT22;38763;53.096;6.062;2023-08-31T13:20:39;17.10;99.90
52899;DHT22;38763;53.096;6.062;2023-08-31T13:23:06;17.10;99.90
52899;DHT22;38763;53.096;6.062;2023-08-31T13:25:32;17.10;99.90
52899;DHT22;38763;53.096;6.062;2023-08-31T13:27:58;17.20;99.90
52899;DHT22;38763;53.096;6.062;2023-08-31T13:30:23;17.30;99.90
52899;DHT22;38763;53.096;6.062;2023-08-31T13:32:49;17.40;99.90
52899;DHT22;38763;53.096;6.062;2023-08-31T13:35:15;17.10;99.90
52899;DHT22;38763;53.096;6.062;2023-08-31T13:37:41;17.10;99.90
52899;DHT22;38763;53.096;6.062;2023-08-31T13:40:07;17.10;99.90
52899;DHT22;38763;53.096;6.062;2023-08-31T13:42:36;16.90;99.90
52899;DHT22;38763;53.096;6.062;2023-08-31T13:45:07;16.80;99.90
52899;DHT22;38763;53.096;6.062;2023-08-31T13:47:33;16.90;99.90
52899;DHT22;38763;53.096;6.062;2023-08-31T13:49:59;17.00;99.90
52899;DHT22;38763;53.096;6.062;2023-08-31T13:52:25;17.10;99.90
52899;DHT22;38763;53.096;6.062;2023-08-31T13:54:51;17.10;99.90
52899;DHT22;38763;53.096;6.062;2023-08-31T13:57:18;17.00;99.90
52899;DHT22;38763;53.096;6.062;2023-08-31T13:59:44;17.10;99.90
52899;DHT22;38763;53.096;6.062;2023-08-31T14:02:10;17.10;99.90
52899;DHT22;38763;53.096;6.062;2023-08-31T14:04:35;17.30;99.90
52899;DHT22;38763;53.096;6.062;2023-08-31T14:07:01;17.30;99.90
52899;DHT22;38763;53.096;6.062;2023-08-31T14:09:30;17.40;99.90
52899;DHT22;38763;53.096;6.062;2023-08-31T14:11:57;17.60;99.90
52899;DHT22;38763;53.096;6.062;2023-08-31T14:14:23;17.70;99.90
52899;DHT22;38763;53.096;6.062;2023-08-31T14:16:49;17.70;99.90
52899;DHT22;38763;53.096;6.062;2023-08-31T14:19:15;17.70;99.90
52899;DHT22;38763;53.096;6.062;2023-08-31T14:21:41;17.70;99.90
52899;DHT22;38763;53.096;6.062;2023-08-31T14:24:07;17.70;99.90
52899;DHT22;38763;53.096;6.062;2023-08-31T14:26:32;17.80;99.90
52899;DHT22;38763;53.096;6.062;2023-08-31T14:28:58;17.80;99.90
52899;DHT22;38763;53.096;6.062;2023-08-31T14:31:24;17.80;99.90
52899;DHT22;38763;53.096;6.062;2023-08-31T14:33:49;17.70;99.90
52899;DHT22;38763;53.096;6.062;2023-08-31T14:36:17;17.70;99.90
52899;DHT22;38763;53.096;6.062;2023-08-31T14:38:43;17.70;99.90
52899;DHT22;38763;53.096;6.062;2023-08-31T14:41:11;17.60;99.90
52899;DHT22;38763;53.096;6.062;2023-08-31T14:43:37;17.50;99.90
52899;DHT22;38763;53.096;6.062;2023-08-31T14:46:02;17.70;99.90
52899;DHT22;38763;53.096;6.062;2023-08-31T14:48:30;17.60;99.90
52899;DHT22;38763;53.096;6.062;2023-08-31T14:50:55;17.60;99.90
52899;DHT22;38763;53.096;6.062;2023-08-31T14:53:24;17.60;99.90
52899;DHT22;38763;53.096;6.062;2023-08-31T14:55:49;17.50;99.90
52899;DHT22;38763;53.096;6.062;2023-08-31T14:58:15;17.40;99.90
52899;DHT22;38763;53.096;6.062;2023-08-31T15:00:41;17.40;99.90
52899;DHT22;38763;53.096;6.062;2023-08-31T15:03:07;17.30;99.90
52899;DHT22;38763;53.096;6.062;2023-08-31T15:05:32;17.20;99.90
52899;DHT22;38763;53.096;6.062;2023-08-31T15:08:00;17.20;99.90
52899;DHT22;38763;53.096;6.062;2023-08-31T15:10:27;17.30;99.90
52899;DHT22;38763;53.096;6.062;2023-08-31T15:12:53;17.30;99.90
52899;DHT22;38763;53.096;6.062;2023-08-31T15:15:24;17.30;99.90
52899;DHT22;38763;53.096;6.062;2023-08-31T15:17:49;17.20;99.90
52899;DHT22;38763;53.096;6.062;2023-08-31T15:20:15;17.20;99.90
52899;DHT22;38763;53.096;6.062;2023-08-31T15:22:41;17.40;99.90
52899;DHT22;38763;53.096;6.062;2023-08-31T15:25:06;17.40;99.90
52899;DHT22;38763;53.096;6.062;2023-08-31T15:27:32;17.50;99.90
52899;DHT22;38763;53.096;6.062;2023-08-31T15:29:57;17.60;99.90
52899;DHT22;38763;53.096;6.062;2023-08-31T15:32:24;17.60;99.90
52899;DHT22;38763;53.096;6.062;2023-08-31T15:34:49;17.60;99.90
52899;DHT22;38763;53.096;6.062;2023-08-31T15:37:15;17.50;99.90
52899;DHT22;38763;53.096;6.062;2023-08-31T15:39:40;17.50;99.90
52899;DHT22;38763;53.096;6.062;2023-08-31T15:42:06;17.50;99.90
52899;DHT22;38763;53.096;6.062;2023-08-31T15:44:32;17.60;99.90
52899;DHT22;38763;53.096;6.062;2023-08-31T15:46:59;17.60;99.90
52899;DHT22;38763;53.096;6.062;2023-08-31T15:49:25;17.60;99.90